Weather 🌤️

Recent data

Temperatures

Wind

Pressure

Humidity & Precipitation

Last data
obsTime qcStatus tempAvg heatindexAvg windspeedAvg windgustAvg winddirAvg pressureAvg humidityAvg precipRate precipTotal
2026-09-06 01:34:56 0 24.1 24 1.2 6.1 223 1002.71 55 0 0
2026-09-06 01:29:52 0 24.2 24.1 1.3 6.1 220 1002.54 55 0 0
2026-09-06 01:24:56 0 24.2 24.1 3 5.5 227 1002.54 55 0 0
2026-09-06 01:19:56 0 24.2 24.2 2.5 5 230 1002.71 55 0 0
2026-09-06 01:14:48 0 24.3 24.2 1.1 7.8 215 1002.54 55 0 0
2026-09-06 01:09:54 0 24.3 24.2 1.6 7.9 226 1002.54 55 0 0
2026-09-06 01:04:56 0 24.3 24.2 2.7 7.9 221 1002.54 55 0 0
2026-09-06 01:04:48 0 24.3 24.2 2.7 7.9 222 1002.54 55 0 0
2026-09-06 00:59:56 0 24.4 24.3 1.2 7.9 215 1002.54 55 0 0
2026-09-06 00:54:47 0 24.4 24.3 0.9 7.9 216 1002.71 55 0 0
2026-09-06 00:49:51 0 24.4 24.3 2.3 7.9 213 1002.71 55 0 0
2026-09-06 00:44:56 0 24.4 24.4 2.7 7.9 228 1002.71 55 0 0

Hourly data

Temperatures

Wind

Pressure

Humidity & Precipitation

Last data
obsTime qcStatus tempAvg heatindexAvg windspeedAvg windgustAvg winddirAvg pressureAvg humidityAvg precipRate precipTotal
2026-09-06 00:59:56 0 24.6 24.5 2.8 7.8 225 1002.71 54.9 0 0
2026-09-05 23:59:51 0 25.3 25.3 2.9 6.1 227 1002.71 53.4 0 0
2026-09-05 22:59:56 0 26 26 1.7 6 215 1003.05 52.1 0 0
2026-09-05 21:59:49 0 26.6 26.8 1.5 7.2 221 1002.54 50.6 0 0
2026-09-05 20:59:53 0 27.5 27.8 3.7 14 280 1002.03 48.8 0 0
2026-09-05 19:59:57 1 28.5 28.7 6.9 13.6 279 1001.53 46.6 0 0
2026-09-05 18:59:57 1 29.4 29.5 5.1 11.8 280 1001.53 45.1 0 0
2026-09-05 17:59:49 1 29.3 29.4 4.8 11.9 277 1001.36 45 0 0
2026-09-05 16:59:49 1 29.1 29.2 4.4 15.1 249 1001.69 45 0 0
2026-09-05 15:59:57 1 28.7 28.7 5 17.1 255 1002.03 44.4 0 0
2026-09-05 14:59:49 1 28.1 28.1 4.6 11.4 234 1002.37 45.1 0 0
2026-09-05 13:59:49 1 27.1 27.2 3.8 10.4 261 1002.71 46.5 0 0
2026-09-05 12:59:48 1 26.4 26.3 3.4 7.7 230 1003.05 47 0 0
2026-09-05 11:59:57 1 25.2 25 2.2 6.1 211 1003.22 48.3 0 0
2026-09-05 10:59:57 1 22.6 22.2 1.6 4.5 184 1003.05 51.2 0 0
2026-09-05 09:59:50 1 21 20.8 0.5 2.9 164 1002.71 52.7 0 0
2026-09-05 08:59:49 0 20.5 20.5 0.3 2.1 167 1002.2 52.1 0 0
2026-09-05 07:59:48 0 20.4 20.4 0.2 1.7 164 1001.69 51 0 0
2026-09-05 06:59:51 0 21.2 20.8 0.1 1.9 148 1001.36 48.9 0 0
2026-09-05 05:59:50 0 22.1 21.6 0 1.9 186 1001.36 46.4 0 0
2026-09-05 04:59:49 0 22.9 22.4 0.8 4.5 230 1000.68 44.4 0 0
2026-09-05 03:59:49 0 23.5 23 1.1 5.5 222 1000.34 43.2 0 0
2026-09-05 02:59:57 0 24.2 23.8 0.9 3.8 217 1000.85 42.3 0 0
2026-09-05 01:59:58 0 25.1 24.7 0.6 3.8 225 1000.85 40.8 0 0